sensor_id;sensor_type;location;lat;lon;timestamp;P1;durP1;ratioP1;P2;durP2;ratioP2
8151;SDS011;4117;53.622;9.958;2024-01-30T00:01:53;10.10;;;7.33;;
8151;SDS011;4117;53.622;9.958;2024-01-30T00:04:20;10.63;;;7.60;;
8151;SDS011;4117;53.622;9.958;2024-01-30T00:06:47;12.30;;;8.07;;
8151;SDS011;4117;53.622;9.958;2024-01-30T00:09:15;10.20;;;7.47;;
8151;SDS011;4117;53.622;9.958;2024-01-30T00:11:42;11.13;;;7.30;;
8151;SDS011;4117;53.622;9.958;2024-01-30T00:14:09;10.53;;;7.23;;
8151;SDS011;4117;53.622;9.958;2024-01-30T00:16:36;9.80;;;7.30;;
8151;SDS011;4117;53.622;9.958;2024-01-30T00:19:03;10.80;;;7.10;;
8151;SDS011;4117;53.622;9.958;2024-01-30T00:21:29;10.77;;;6.77;;
8151;SDS011;4117;53.622;9.958;2024-01-30T00:23:56;11.50;;;7.10;;
8151;SDS011;4117;53.622;9.958;2024-01-30T00:26:25;10.73;;;7.60;;
8151;SDS011;4117;53.622;9.958;2024-01-30T00:28:52;11.27;;;7.00;;
8151;SDS011;4117;53.622;9.958;2024-01-30T00:31:19;9.07;;;6.97;;
8151;SDS011;4117;53.622;9.958;2024-01-30T00:33:46;11.27;;;7.10;;
8151;SDS011;4117;53.622;9.958;2024-01-30T00:36:13;10.37;;;7.00;;
8151;SDS011;4117;53.622;9.958;2024-01-30T00:38:40;11.73;;;6.57;;
8151;SDS011;4117;53.622;9.958;2024-01-30T00:41:07;11.73;;;7.83;;
8151;SDS011;4117;53.622;9.958;2024-01-30T00:43:36;9.47;;;6.87;;
8151;SDS011;4117;53.622;9.958;2024-01-30T00:46:03;10.07;;;6.87;;
8151;SDS011;4117;53.622;9.958;2024-01-30T00:48:30;10.23;;;7.57;;
8151;SDS011;4117;53.622;9.958;2024-01-30T00:50:57;10.10;;;6.80;;
8151;SDS011;4117;53.622;9.958;2024-01-30T00:53:24;10.07;;;6.97;;
8151;SDS011;4117;53.622;9.958;2024-01-30T00:55:51;9.17;;;7.10;;
8151;SDS011;4117;53.622;9.958;2024-01-30T00:58:18;11.27;;;6.90;;
8151;SDS011;4117;53.622;9.958;2024-01-30T01:00:46;9.47;;;6.70;;
8151;SDS011;4117;53.622;9.958;2024-01-30T01:03:13;9.93;;;6.77;;
8151;SDS011;4117;53.622;9.958;2024-01-30T01:05:40;10.90;;;6.30;;
8151;SDS011;4117;53.622;9.958;2024-01-30T01:08:07;9.87;;;6.83;;
8151;SDS011;4117;53.622;9.958;2024-01-30T01:10:35;10.90;;;7.03;;
8151;SDS011;4117;53.622;9.958;2024-01-30T01:13:02;11.70;;;6.83;;
8151;SDS011;4117;53.622;9.958;2024-01-30T01:15:29;11.73;;;7.07;;
8151;SDS011;4117;53.622;9.958;2024-01-30T01:17:57;11.93;;;6.47;;
8151;SDS011;4117;53.622;9.958;2024-01-30T01:20:24;10.00;;;7.03;;
8151;SDS011;4117;53.622;9.958;2024-01-30T01:22:51;11.37;;;6.20;;
8151;SDS011;4117;53.622;9.958;2024-01-30T01:25:19;9.10;;;6.87;;
8151;SDS011;4117;53.622;9.958;2024-01-30T01:27:46;8.10;;;6.20;;
8151;SDS011;4117;53.622;9.958;2024-01-30T01:30:16;7.90;;;6.50;;
8151;SDS011;4117;53.622;9.958;2024-01-30T01:32:46;10.23;;;7.10;;
8151;SDS011;4117;53.622;9.958;2024-01-30T01:35:21;9.93;;;6.73;;
8151;SDS011;4117;53.622;9.958;2024-01-30T01:37:49;11.77;;;6.70;;
8151;SDS011;4117;53.622;9.958;2024-01-30T01:40:20;9.17;;;6.40;;
8151;SDS011;4117;53.622;9.958;2024-01-30T01:42:49;10.33;;;7.00;;
8151;SDS011;4117;53.622;9.958;2024-01-30T01:45:16;9.17;;;7.20;;
8151;SDS011;4117;53.622;9.958;2024-01-30T01:47:43;8.43;;;6.53;;
8151;SDS011;4117;53.622;9.958;2024-01-30T01:50:12;9.07;;;6.50;;
8151;SDS011;4117;53.622;9.958;2024-01-30T01:52:41;9.00;;;6.57;;
8151;SDS011;4117;53.622;9.958;2024-01-30T01:55:08;7.63;;;6.50;;
8151;SDS011;4117;53.622;9.958;2024-01-30T01:57:35;11.80;;;6.80;;
8151;SDS011;4117;53.622;9.958;2024-01-30T02:00:03;8.87;;;6.60;;
8151;SDS011;4117;53.622;9.958;2024-01-30T02:02:30;8.50;;;6.67;;
8151;SDS011;4117;53.622;9.958;2024-01-30T02:05:03;8.90;;;6.37;;
8151;SDS011;4117;53.622;9.958;2024-01-30T02:07:30;8.93;;;6.50;;
8151;SDS011;4117;53.622;9.958;2024-01-30T02:09:58;9.07;;;6.53;;
8151;SDS011;4117;53.622;9.958;2024-01-30T02:12:25;9.10;;;6.30;;
8151;SDS011;4117;53.622;9.958;2024-01-30T02:14:52;8.23;;;6.37;;
8151;SDS011;4117;53.622;9.958;2024-01-30T02:17:20;8.97;;;6.37;;
8151;SDS011;4117;53.622;9.958;2024-01-30T02:19:48;8.60;;;6.77;;
8151;SDS011;4117;53.622;9.958;2024-01-30T02:22:16;9.50;;;6.70;;
8151;SDS011;4117;53.622;9.958;2024-01-30T02:24:44;9.17;;;6.70;;
8151;SDS011;4117;53.622;9.958;2024-01-30T02:27:11;8.63;;;6.50;;
8151;SDS011;4117;53.622;9.958;2024-01-30T02:29:38;10.33;;;6.57;;
8151;SDS011;4117;53.622;9.958;2024-01-30T02:32:05;10.03;;;7.10;;
8151;SDS011;4117;53.622;9.958;2024-01-30T02:34:33;8.37;;;6.37;;
8151;SDS011;4117;53.622;9.958;2024-01-30T02:37:00;9.80;;;6.77;;
8151;SDS011;4117;53.622;9.958;2024-01-30T02:39:29;9.10;;;6.70;;
8151;SDS011;4117;53.622;9.958;2024-01-30T02:41:55;7.80;;;6.70;;
8151;SDS011;4117;53.622;9.958;2024-01-30T02:44:23;9.50;;;6.37;;
8151;SDS011;4117;53.622;9.958;2024-01-30T02:46:50;9.60;;;6.50;;
8151;SDS011;4117;53.622;9.958;2024-01-30T02:49:19;7.50;;;6.30;;
8151;SDS011;4117;53.622;9.958;2024-01-30T02:51:46;9.97;;;6.03;;
8151;SDS011;4117;53.622;9.958;2024-01-30T02:54:13;7.63;;;6.00;;
8151;SDS011;4117;53.622;9.958;2024-01-30T02:56:41;8.57;;;6.50;;
8151;SDS011;4117;53.622;9.958;2024-01-30T02:59:08;8.23;;;6.07;;
8151;SDS011;4117;53.622;9.958;2024-01-30T03:04:11;8.57;;;5.47;;
8151;SDS011;4117;53.622;9.958;2024-01-30T03:06:38;8.67;;;6.47;;
8151;SDS011;4117;53.622;9.958;2024-01-30T03:09:04;9.30;;;6.07;;
8151;SDS011;4117;53.622;9.958;2024-01-30T03:11:31;9.00;;;6.03;;
8151;SDS011;4117;53.622;9.958;2024-01-30T03:14:00;8.10;;;6.20;;
8151;SDS011;4117;53.622;9.958;2024-01-30T03:16:27;7.03;;;5.90;;
8151;SDS011;4117;53.622;9.958;2024-01-30T03:18:53;9.03;;;5.77;;
8151;SDS011;4117;53.622;9.958;2024-01-30T03:21:20;7.90;;;5.80;;
8151;SDS011;4117;53.622;9.958;2024-01-30T03:23:47;7.53;;;5.83;;
8151;SDS011;4117;53.622;9.958;2024-01-30T03:26:14;7.13;;;6.07;;
8151;SDS011;4117;53.622;9.958;2024-01-30T03:28:41;6.47;;;5.50;;
8151;SDS011;4117;53.622;9.958;2024-01-30T03:31:09;10.40;;;5.90;;
8151;SDS011;4117;53.622;9.958;2024-01-30T03:33:36;7.77;;;5.83;;
8151;SDS011;4117;53.622;9.958;2024-01-30T03:36:04;7.93;;;6.00;;
8151;SDS011;4117;53.622;9.958;2024-01-30T03:38:32;8.57;;;6.10;;
8151;SDS011;4117;53.622;9.958;2024-01-30T03:40:59;7.53;;;5.70;;
8151;SDS011;4117;53.622;9.958;2024-01-30T03:43:26;8.40;;;6.00;;
8151;SDS011;4117;53.622;9.958;2024-01-30T03:45:53;9.70;;;6.13;;
8151;SDS011;4117;53.622;9.958;2024-01-30T03:48:21;8.70;;;6.27;;
8151;SDS011;4117;53.622;9.958;2024-01-30T03:50:48;8.70;;;6.13;;
8151;SDS011;4117;53.622;9.958;2024-01-30T03:53:15;7.23;;;5.73;;
8151;SDS011;4117;53.622;9.958;2024-01-30T03:55:42;7.17;;;5.63;;
8151;SDS011;4117;53.622;9.958;2024-01-30T03:58:09;9.00;;;6.23;;
8151;SDS011;4117;53.622;9.958;2024-01-30T04:00:36;8.40;;;5.97;;
8151;SDS011;4117;53.622;9.958;2024-01-30T04:03:03;8.40;;;6.00;;
8151;SDS011;4117;53.622;9.958;2024-01-30T04:05:32;7.80;;;6.07;;
8151;SDS011;4117;53.622;9.958;2024-01-30T04:07:59;8.43;;;6.03;;
8151;SDS011;4117;53.622;9.958;2024-01-30T04:10:26;9.13;;;6.20;;
8151;SDS011;4117;53.622;9.958;2024-01-30T04:12:53;9.43;;;6.30;;
8151;SDS011;4117;53.622;9.958;2024-01-30T04:15:20;9.50;;;6.40;;
8151;SDS011;4117;53.622;9.958;2024-01-30T04:17:47;7.80;;;5.87;;
8151;SDS011;4117;53.622;9.958;2024-01-30T04:20:14;8.30;;;6.23;;
8151;SDS011;4117;53.622;9.958;2024-01-30T04:22:44;8.47;;;6.10;;
8151;SDS011;4117;53.622;9.958;2024-01-30T04:25:11;8.53;;;5.93;;
8151;SDS011;4117;53.622;9.958;2024-01-30T04:27:38;8.77;;;6.00;;
8151;SDS011;4117;53.622;9.958;2024-01-30T04:30:05;6.77;;;5.73;;
8151;SDS011;4117;53.622;9.958;2024-01-30T04:32:33;8.60;;;6.63;;
8151;SDS011;4117;53.622;9.958;2024-01-30T04:35:02;6.83;;;6.13;;
8151;SDS011;4117;53.622;9.958;2024-01-30T04:37:29;6.73;;;5.67;;
8151;SDS011;4117;53.622;9.958;2024-01-30T04:39:57;7.03;;;5.97;;
8151;SDS011;4117;53.622;9.958;2024-01-30T04:42:24;8.57;;;6.30;;
8151;SDS011;4117;53.622;9.958;2024-01-30T04:44:51;8.23;;;6.50;;
8151;SDS011;4117;53.622;9.958;2024-01-30T04:47:18;6.67;;;5.77;;
8151;SDS011;4117;53.622;9.958;2024-01-30T04:49:45;7.43;;;5.93;;
8151;SDS011;4117;53.622;9.958;2024-01-30T04:52:12;10.77;;;5.90;;
8151;SDS011;4117;53.622;9.958;2024-01-30T04:54:39;7.17;;;5.60;;
8151;SDS011;4117;53.622;9.958;2024-01-30T04:57:07;7.90;;;6.07;;
8151;SDS011;4117;53.622;9.958;2024-01-30T04:59:37;9.00;;;6.13;;
8151;SDS011;4117;53.622;9.958;2024-01-30T05:02:04;6.87;;;5.70;;
8151;SDS011;4117;53.622;9.958;2024-01-30T05:04:32;9.43;;;5.83;;
8151;SDS011;4117;53.622;9.958;2024-01-30T05:06:59;7.33;;;6.03;;
8151;SDS011;4117;53.622;9.958;2024-01-30T05:09:26;10.80;;;6.63;;
8151;SDS011;4117;53.622;9.958;2024-01-30T05:11:53;8.60;;;6.30;;
8151;SDS011;4117;53.622;9.958;2024-01-30T05:14:21;6.50;;;5.80;;
8151;SDS011;4117;53.622;9.958;2024-01-30T05:16:48;11.80;;;7.47;;
8151;SDS011;4117;53.622;9.958;2024-01-30T05:19:15;8.00;;;6.10;;
8151;SDS011;4117;53.622;9.958;2024-01-30T05:21:43;8.07;;;6.00;;
8151;SDS011;4117;53.622;9.958;2024-01-30T05:24:10;7.60;;;5.97;;
8151;SDS011;4117;53.622;9.958;2024-01-30T05:26:37;8.50;;;6.57;;
8151;SDS011;4117;53.622;9.958;2024-01-30T05:29:04;9.30;;;6.70;;
8151;SDS011;4117;53.622;9.958;2024-01-30T05:31:33;8.07;;;7.00;;
8151;SDS011;4117;53.622;9.958;2024-01-30T05:34:00;8.53;;;6.83;;
8151;SDS011;4117;53.622;9.958;2024-01-30T05:36:27;9.27;;;6.63;;
8151;SDS011;4117;53.622;9.958;2024-01-30T05:38:55;8.50;;;6.70;;
8151;SDS011;4117;53.622;9.958;2024-01-30T05:41:22;10.33;;;6.67;;
8151;SDS011;4117;53.622;9.958;2024-01-30T05:43:49;10.23;;;6.90;;
8151;SDS011;4117;53.622;9.958;2024-01-30T05:46:19;8.47;;;6.87;;
8151;SDS011;4117;53.622;9.958;2024-01-30T05:48:47;9.40;;;7.10;;
8151;SDS011;4117;53.622;9.958;2024-01-30T05:51:14;8.80;;;6.60;;
8151;SDS011;4117;53.622;9.958;2024-01-30T05:53:41;9.53;;;6.90;;
8151;SDS011;4117;53.622;9.958;2024-01-30T05:56:08;9.77;;;6.70;;
8151;SDS011;4117;53.622;9.958;2024-01-30T05:58:35;9.20;;;6.87;;
8151;SDS011;4117;53.622;9.958;2024-01-30T06:01:02;8.60;;;7.07;;
8151;SDS011;4117;53.622;9.958;2024-01-30T06:03:32;11.70;;;6.80;;
8151;SDS011;4117;53.622;9.958;2024-01-30T06:06:01;8.53;;;6.80;;
8151;SDS011;4117;53.622;9.958;2024-01-30T06:08:28;12.63;;;7.17;;
8151;SDS011;4117;53.622;9.958;2024-01-30T06:10:55;8.60;;;7.23;;
8151;SDS011;4117;53.622;9.958;2024-01-30T06:13:21;8.53;;;7.30;;
8151;SDS011;4117;53.622;9.958;2024-01-30T06:15:48;11.10;;;7.60;;
8151;SDS011;4117;53.622;9.958;2024-01-30T06:18:15;10.23;;;7.40;;
8151;SDS011;4117;53.622;9.958;2024-01-30T06:20:42;9.13;;;7.47;;
8151;SDS011;4117;53.622;9.958;2024-01-30T06:23:11;10.10;;;7.70;;
8151;SDS011;4117;53.622;9.958;2024-01-30T06:25:38;9.57;;;7.67;;
8151;SDS011;4117;53.622;9.958;2024-01-30T06:28:05;10.33;;;8.03;;
8151;SDS011;4117;53.622;9.958;2024-01-30T06:30:32;10.47;;;8.10;;
8151;SDS011;4117;53.622;9.958;2024-01-30T06:32:58;10.53;;;8.33;;
8151;SDS011;4117;53.622;9.958;2024-01-30T06:35:25;12.20;;;8.30;;
8151;SDS011;4117;53.622;9.958;2024-01-30T06:37:54;10.50;;;8.60;;
8151;SDS011;4117;53.622;9.958;2024-01-30T06:40:22;12.77;;;9.00;;
8151;SDS011;4117;53.622;9.958;2024-01-30T06:42:49;12.83;;;9.23;;
8151;SDS011;4117;53.622;9.958;2024-01-30T06:45:16;12.63;;;9.50;;
8151;SDS011;4117;53.622;9.958;2024-01-30T06:47:43;13.67;;;9.43;;
8151;SDS011;4117;53.622;9.958;2024-01-30T06:50:10;10.47;;;8.73;;
8151;SDS011;4117;53.622;9.958;2024-01-30T06:52:37;12.37;;;7.90;;
8151;SDS011;4117;53.622;9.958;2024-01-30T06:55:04;10.87;;;8.83;;
8151;SDS011;4117;53.622;9.958;2024-01-30T06:57:33;14.20;;;9.67;;
8151;SDS011;4117;53.622;9.958;2024-01-30T07:00:00;12.13;;;9.33;;
8151;SDS011;4117;53.622;9.958;2024-01-30T07:02:26;12.33;;;8.73;;
8151;SDS011;4117;53.622;9.958;2024-01-30T07:04:53;14.73;;;10.27;;
8151;SDS011;4117;53.622;9.958;2024-01-30T07:07:20;13.97;;;9.77;;
8151;SDS011;4117;53.622;9.958;2024-01-30T07:09:47;11.00;;;8.40;;
8151;SDS011;4117;53.622;9.958;2024-01-30T07:12:17;11.80;;;8.67;;
8151;SDS011;4117;53.622;9.958;2024-01-30T07:14:46;13.83;;;9.33;;
8151;SDS011;4117;53.622;9.958;2024-01-30T07:17:15;10.37;;;8.40;;
8151;SDS011;4117;53.622;9.958;2024-01-30T07:19:42;10.13;;;8.33;;
8151;SDS011;4117;53.622;9.958;2024-01-30T07:22:09;10.27;;;8.00;;
8151;SDS011;4117;53.622;9.958;2024-01-30T07:24:36;11.77;;;8.60;;
8151;SDS011;4117;53.622;9.958;2024-01-30T07:27:09;10.73;;;8.47;;
8151;SDS011;4117;53.622;9.958;2024-01-30T07:29:36;12.70;;;8.00;;
8151;SDS011;4117;53.622;9.958;2024-01-30T07:32:05;9.83;;;8.37;;
8151;SDS011;4117;53.622;9.958;2024-01-30T07:34:32;12.43;;;8.33;;
8151;SDS011;4117;53.622;9.958;2024-01-30T07:36:59;13.87;;;8.80;;
8151;SDS011;4117;53.622;9.958;2024-01-30T07:39:26;13.17;;;8.13;;
8151;SDS011;4117;53.622;9.958;2024-01-30T07:41:53;12.27;;;8.30;;
8151;SDS011;4117;53.622;9.958;2024-01-30T07:44:20;9.13;;;7.87;;
8151;SDS011;4117;53.622;9.958;2024-01-30T07:46:46;11.23;;;8.30;;
8151;SDS011;4117;53.622;9.958;2024-01-30T07:49:15;10.60;;;8.00;;
8151;SDS011;4117;53.622;9.958;2024-01-30T07:51:42;12.90;;;8.00;;
8151;SDS011;4117;53.622;9.958;2024-01-30T07:54:13;9.60;;;8.30;;
8151;SDS011;4117;53.622;9.958;2024-01-30T08:03:24;12.67;;;9.40;;
8151;SDS011;4117;53.622;9.958;2024-01-30T08:05:52;8.37;;;7.50;;
8151;SDS011;4117;53.622;9.958;2024-01-30T08:08:19;13.87;;;10.30;;
8151;SDS011;4117;53.622;9.958;2024-01-30T08:10:46;11.30;;;8.80;;
8151;SDS011;4117;53.622;9.958;2024-01-30T08:13:14;12.67;;;10.33;;
8151;SDS011;4117;53.622;9.958;2024-01-30T08:15:41;15.50;;;10.77;;
8151;SDS011;4117;53.622;9.958;2024-01-30T08:18:08;14.67;;;10.40;;
8151;SDS011;4117;53.622;9.958;2024-01-30T08:20:35;17.13;;;11.60;;
8151;SDS011;4117;53.622;9.958;2024-01-30T08:23:03;17.83;;;12.53;;
8151;SDS011;4117;53.622;9.958;2024-01-30T08:25:30;15.80;;;11.53;;
8151;SDS011;4117;53.622;9.958;2024-01-30T08:27:57;17.00;;;12.73;;
8151;SDS011;4117;53.622;9.958;2024-01-30T08:30:25;19.40;;;12.97;;
8151;SDS011;4117;53.622;9.958;2024-01-30T08:32:52;18.37;;;13.57;;
8151;SDS011;4117;53.622;9.958;2024-01-30T08:35:18;20.20;;;13.70;;
8151;SDS011;4117;53.622;9.958;2024-01-30T08:37:45;19.00;;;14.20;;
8151;SDS011;4117;53.622;9.958;2024-01-30T08:40:14;22.60;;;15.00;;
8151;SDS011;4117;53.622;9.958;2024-01-30T08:42:41;22.40;;;14.40;;
8151;SDS011;4117;53.622;9.958;2024-01-30T08:45:08;21.10;;;14.90;;
8151;SDS011;4117;53.622;9.958;2024-01-30T08:47:36;18.00;;;14.87;;
8151;SDS011;4117;53.622;9.958;2024-01-30T08:50:03;21.37;;;15.27;;
8151;SDS011;4117;53.622;9.958;2024-01-30T08:52:31;24.17;;;15.20;;
8151;SDS011;4117;53.622;9.958;2024-01-30T08:54:59;20.43;;;15.13;;
8151;SDS011;4117;53.622;9.958;2024-01-30T08:57:27;21.53;;;15.57;;
8151;SDS011;4117;53.622;9.958;2024-01-30T08:59:55;23.30;;;15.27;;
8151;SDS011;4117;53.622;9.958;2024-01-30T09:02:22;21.00;;;16.10;;
8151;SDS011;4117;53.622;9.958;2024-01-30T09:04:49;21.80;;;15.20;;
8151;SDS011;4117;53.622;9.958;2024-01-30T09:07:17;20.07;;;15.17;;
8151;SDS011;4117;53.622;9.958;2024-01-30T09:09:43;20.90;;;15.60;;
8151;SDS011;4117;53.622;9.958;2024-01-30T09:12:11;22.10;;;15.20;;
8151;SDS011;4117;53.622;9.958;2024-01-30T09:14:39;21.53;;;15.23;;
8151;SDS011;4117;53.622;9.958;2024-01-30T09:17:07;18.50;;;14.60;;
8151;SDS011;4117;53.622;9.958;2024-01-30T09:19:34;19.60;;;14.77;;
8151;SDS011;4117;53.622;9.958;2024-01-30T09:22:01;19.53;;;14.40;;
8151;SDS011;4117;53.622;9.958;2024-01-30T09:24:28;20.33;;;14.23;;
8151;SDS011;4117;53.622;9.958;2024-01-30T09:26:55;24.47;;;14.60;;
8151;SDS011;4117;53.622;9.958;2024-01-30T09:29:25;17.93;;;13.77;;
8151;SDS011;4117;53.622;9.958;2024-01-30T09:31:54;18.33;;;13.67;;
8151;SDS011;4117;53.622;9.958;2024-01-30T09:34:21;21.73;;;14.47;;
8151;SDS011;4117;53.622;9.958;2024-01-30T09:36:48;21.83;;;14.57;;
8151;SDS011;4117;53.622;9.958;2024-01-30T09:39:15;19.70;;;13.87;;
8151;SDS011;4117;53.622;9.958;2024-01-30T09:41:45;19.03;;;13.57;;
8151;SDS011;4117;53.622;9.958;2024-01-30T09:44:15;20.10;;;13.53;;
8151;SDS011;4117;53.622;9.958;2024-01-30T09:46:43;20.57;;;14.23;;
8151;SDS011;4117;53.622;9.958;2024-01-30T09:49:14;20.40;;;13.03;;
8151;SDS011;4117;53.622;9.958;2024-01-30T09:51:42;17.87;;;13.27;;
8151;SDS011;4117;53.622;9.958;2024-01-30T09:54:10;19.07;;;13.43;;
8151;SDS011;4117;53.622;9.958;2024-01-30T09:56:48;18.20;;;13.90;;
8151;SDS011;4117;53.622;9.958;2024-01-30T09:59:15;18.70;;;13.57;;
8151;SDS011;4117;53.622;9.958;2024-01-30T10:01:42;17.40;;;12.97;;
8151;SDS011;4117;53.622;9.958;2024-01-30T10:04:09;18.57;;;14.30;;
8151;SDS011;4117;53.622;9.958;2024-01-30T10:06:38;18.57;;;12.93;;
8151;SDS011;4117;53.622;9.958;2024-01-30T10:09:06;19.67;;;13.23;;
8151;SDS011;4117;53.622;9.958;2024-01-30T10:11:34;17.80;;;12.40;;
8151;SDS011;4117;53.622;9.958;2024-01-30T10:14:02;18.97;;;12.57;;
8151;SDS011;4117;53.622;9.958;2024-01-30T10:16:29;14.83;;;12.60;;
8151;SDS011;4117;53.622;9.958;2024-01-30T10:18:56;17.40;;;12.90;;
8151;SDS011;4117;53.622;9.958;2024-01-30T10:21:23;15.73;;;12.13;;
8151;SDS011;4117;53.622;9.958;2024-01-30T10:23:51;21.57;;;12.50;;
8151;SDS011;4117;53.622;9.958;2024-01-30T10:26:18;16.83;;;12.00;;
8151;SDS011;4117;53.622;9.958;2024-01-30T10:28:47;16.03;;;11.77;;
8151;SDS011;4117;53.622;9.958;2024-01-30T10:31:16;18.77;;;11.97;;
8151;SDS011;4117;53.622;9.958;2024-01-30T10:33:44;15.30;;;12.20;;
8151;SDS011;4117;53.622;9.958;2024-01-30T10:36:12;16.00;;;12.07;;
8151;SDS011;4117;53.622;9.958;2024-01-30T10:38:42;17.47;;;12.40;;
8151;SDS011;4117;53.622;9.958;2024-01-30T10:41:13;17.07;;;12.00;;
8151;SDS011;4117;53.622;9.958;2024-01-30T10:43:47;17.40;;;12.30;;
8151;SDS011;4117;53.622;9.958;2024-01-30T10:46:25;19.23;;;12.00;;
8151;SDS011;4117;53.622;9.958;2024-01-30T10:48:59;16.80;;;12.87;;
8151;SDS011;4117;53.622;9.958;2024-01-30T10:51:27;18.50;;;12.10;;
8151;SDS011;4117;53.622;9.958;2024-01-30T10:53:55;18.63;;;12.50;;
8151;SDS011;4117;53.622;9.958;2024-01-30T10:56:24;15.63;;;12.53;;
8151;SDS011;4117;53.622;9.958;2024-01-30T10:58:52;17.53;;;12.27;;
8151;SDS011;4117;53.622;9.958;2024-01-30T11:01:20;19.27;;;12.00;;
8151;SDS011;4117;53.622;9.958;2024-01-30T11:03:49;16.23;;;12.13;;
8151;SDS011;4117;53.622;9.958;2024-01-30T11:06:17;14.37;;;11.90;;
8151;SDS011;4117;53.622;9.958;2024-01-30T11:08:44;17.03;;;12.73;;
8151;SDS011;4117;53.622;9.958;2024-01-30T11:11:11;14.70;;;10.93;;
8151;SDS011;4117;53.622;9.958;2024-01-30T11:13:40;18.50;;;12.20;;
8151;SDS011;4117;53.622;9.958;2024-01-30T11:16:08;16.40;;;11.53;;
8151;SDS011;4117;53.622;9.958;2024-01-30T11:18:38;19.80;;;11.37;;
8151;SDS011;4117;53.622;9.958;2024-01-30T11:21:05;16.87;;;12.07;;
8151;SDS011;4117;53.622;9.958;2024-01-30T11:23:33;19.53;;;12.33;;
8151;SDS011;4117;53.622;9.958;2024-01-30T11:26:02;18.77;;;11.63;;
8151;SDS011;4117;53.622;9.958;2024-01-30T11:28:32;18.73;;;11.73;;
8151;SDS011;4117;53.622;9.958;2024-01-30T11:31:05;16.10;;;11.17;;
8151;SDS011;4117;53.622;9.958;2024-01-30T11:33:33;17.63;;;11.33;;
8151;SDS011;4117;53.622;9.958;2024-01-30T11:36:00;16.50;;;11.53;;
8151;SDS011;4117;53.622;9.958;2024-01-30T11:38:28;16.73;;;10.83;;
8151;SDS011;4117;53.622;9.958;2024-01-30T11:40:55;14.43;;;11.53;;
8151;SDS011;4117;53.622;9.958;2024-01-30T11:43:23;16.30;;;11.23;;
8151;SDS011;4117;53.622;9.958;2024-01-30T11:45:50;15.93;;;10.67;;
8151;SDS011;4117;53.622;9.958;2024-01-30T11:48:19;15.33;;;10.90;;
8151;SDS011;4117;53.622;9.958;2024-01-30T11:50:46;14.43;;;11.67;;
8151;SDS011;4117;53.622;9.958;2024-01-30T11:53:14;14.67;;;10.97;;
8151;SDS011;4117;53.622;9.958;2024-01-30T11:55:49;15.93;;;10.83;;
8151;SDS011;4117;53.622;9.958;2024-01-30T11:58:16;16.60;;;11.00;;
8151;SDS011;4117;53.622;9.958;2024-01-30T12:00:52;14.90;;;10.47;;
8151;SDS011;4117;53.622;9.958;2024-01-30T12:03:22;16.67;;;10.80;;
8151;SDS011;4117;53.622;9.958;2024-01-30T12:05:54;11.57;;;9.90;;
8151;SDS011;4117;53.622;9.958;2024-01-30T12:08:21;15.67;;;9.67;;
8151;SDS011;4117;53.622;9.958;2024-01-30T12:10:54;15.80;;;9.40;;
8151;SDS011;4117;53.622;9.958;2024-01-30T12:13:22;13.27;;;9.30;;
8151;SDS011;4117;53.622;9.958;2024-01-30T12:15:49;10.70;;;8.90;;
8151;SDS011;4117;53.622;9.958;2024-01-30T12:18:18;9.90;;;8.60;;
8151;SDS011;4117;53.622;9.958;2024-01-30T12:20:47;10.20;;;8.50;;
8151;SDS011;4117;53.622;9.958;2024-01-30T12:23:23;12.67;;;8.77;;
8151;SDS011;4117;53.622;9.958;2024-01-30T12:25:51;12.87;;;8.57;;
8151;SDS011;4117;53.622;9.958;2024-01-30T12:28:19;13.37;;;8.90;;
8151;SDS011;4117;53.622;9.958;2024-01-30T12:30:46;11.57;;;8.53;;
8151;SDS011;4117;53.622;9.958;2024-01-30T12:33:15;11.10;;;8.20;;
8151;SDS011;4117;53.622;9.958;2024-01-30T12:35:46;11.00;;;8.63;;
8151;SDS011;4117;53.622;9.958;2024-01-30T12:38:14;11.50;;;8.50;;
8151;SDS011;4117;53.622;9.958;2024-01-30T12:40:41;11.03;;;8.00;;
8151;SDS011;4117;53.622;9.958;2024-01-30T12:43:14;11.00;;;8.03;;
8151;SDS011;4117;53.622;9.958;2024-01-30T12:45:41;12.83;;;8.40;;
8151;SDS011;4117;53.622;9.958;2024-01-30T12:48:08;13.83;;;9.07;;
8151;SDS011;4117;53.622;9.958;2024-01-30T12:50:35;10.77;;;8.30;;
8151;SDS011;4117;53.622;9.958;2024-01-30T12:53:04;11.20;;;8.67;;
8151;SDS011;4117;53.622;9.958;2024-01-30T12:55:31;13.20;;;8.33;;
8151;SDS011;4117;53.622;9.958;2024-01-30T12:57:58;12.47;;;8.10;;
8151;SDS011;4117;53.622;9.958;2024-01-30T13:00:25;12.87;;;8.10;;
8151;SDS011;4117;53.622;9.958;2024-01-30T13:02:52;10.60;;;8.37;;
8151;SDS011;4117;53.622;9.958;2024-01-30T13:05:19;13.97;;;8.17;;
8151;SDS011;4117;53.622;9.958;2024-01-30T13:07:46;9.97;;;7.60;;
8151;SDS011;4117;53.622;9.958;2024-01-30T13:10:14;11.30;;;8.30;;
8151;SDS011;4117;53.622;9.958;2024-01-30T13:12:41;11.33;;;7.83;;
8151;SDS011;4117;53.622;9.958;2024-01-30T13:15:08;12.13;;;8.37;;
8151;SDS011;4117;53.622;9.958;2024-01-30T13:17:36;12.10;;;8.27;;
8151;SDS011;4117;53.622;9.958;2024-01-30T13:20:03;13.50;;;7.97;;
8151;SDS011;4117;53.622;9.958;2024-01-30T13:22:33;13.77;;;8.70;;
8151;SDS011;4117;53.622;9.958;2024-01-30T13:25:00;11.70;;;7.57;;
8151;SDS011;4117;53.622;9.958;2024-01-30T13:27:28;10.07;;;8.00;;
8151;SDS011;4117;53.622;9.958;2024-01-30T13:29:55;10.37;;;8.07;;
8151;SDS011;4117;53.622;9.958;2024-01-30T13:32:22;12.10;;;8.30;;
8151;SDS011;4117;53.622;9.958;2024-01-30T13:34:49;11.17;;;7.70;;
8151;SDS011;4117;53.622;9.958;2024-01-30T13:37:16;10.40;;;7.93;;
8151;SDS011;4117;53.622;9.958;2024-01-30T13:39:43;12.40;;;7.90;;
8151;SDS011;4117;53.622;9.958;2024-01-30T13:42:10;12.13;;;8.67;;
8151;SDS011;4117;53.622;9.958;2024-01-30T13:44:39;12.67;;;8.43;;
8151;SDS011;4117;53.622;9.958;2024-01-30T13:47:08;9.97;;;8.23;;
8151;SDS011;4117;53.622;9.958;2024-01-30T13:49:36;12.13;;;8.63;;
8151;SDS011;4117;53.622;9.958;2024-01-30T13:52:03;10.50;;;8.30;;
8151;SDS011;4117;53.622;9.958;2024-01-30T13:54:30;11.03;;;8.23;;
8151;SDS011;4117;53.622;9.958;2024-01-30T13:56:57;12.30;;;7.87;;
8151;SDS011;4117;53.622;9.958;2024-01-30T13:59:24;12.23;;;8.43;;
8151;SDS011;4117;53.622;9.958;2024-01-30T14:01:52;12.67;;;8.20;;
8151;SDS011;4117;53.622;9.958;2024-01-30T14:04:19;13.87;;;8.90;;
8151;SDS011;4117;53.622;9.958;2024-01-30T14:06:46;9.87;;;8.10;;
8151;SDS011;4117;53.622;9.958;2024-01-30T14:09:14;10.43;;;8.10;;
8151;SDS011;4117;53.622;9.958;2024-01-30T14:11:41;12.53;;;7.97;;
8151;SDS011;4117;53.622;9.958;2024-01-30T14:14:08;10.13;;;7.93;;
8151;SDS011;4117;53.622;9.958;2024-01-30T14:16:36;13.23;;;8.80;;
8151;SDS011;4117;53.622;9.958;2024-01-30T14:19:04;13.67;;;8.93;;
8151;SDS011;4117;53.622;9.958;2024-01-30T14:21:31;11.13;;;7.60;;
8151;SDS011;4117;53.622;9.958;2024-01-30T14:23:58;11.47;;;8.50;;
8151;SDS011;4117;53.622;9.958;2024-01-30T14:26:25;10.13;;;7.93;;
8151;SDS011;4117;53.622;9.958;2024-01-30T14:28:52;11.03;;;8.33;;
8151;SDS011;4117;53.622;9.958;2024-01-30T14:31:20;10.57;;;8.30;;
8151;SDS011;4117;53.622;9.958;2024-01-30T14:33:49;10.17;;;8.40;;
8151;SDS011;4117;53.622;9.958;2024-01-30T14:36:18;12.50;;;8.13;;
8151;SDS011;4117;53.622;9.958;2024-01-30T14:38:45;10.87;;;8.27;;
8151;SDS011;4117;53.622;9.958;2024-01-30T14:41:12;12.90;;;8.07;;
8151;SDS011;4117;53.622;9.958;2024-01-30T14:43:39;15.57;;;8.03;;
8151;SDS011;4117;53.622;9.958;2024-01-30T14:46:06;12.70;;;7.93;;
8151;SDS011;4117;53.622;9.958;2024-01-30T14:48:37;11.10;;;8.17;;
8151;SDS011;4117;53.622;9.958;2024-01-30T14:51:04;12.30;;;7.87;;
8151;SDS011;4117;53.622;9.958;2024-01-30T14:53:35;12.33;;;8.23;;
8151;SDS011;4117;53.622;9.958;2024-01-30T14:56:03;14.70;;;8.40;;
8151;SDS011;4117;53.622;9.958;2024-01-30T14:58:30;11.93;;;8.27;;
8151;SDS011;4117;53.622;9.958;2024-01-30T15:00:58;13.27;;;8.23;;
8151;SDS011;4117;53.622;9.958;2024-01-30T15:03:26;10.70;;;7.67;;
8151;SDS011;4117;53.622;9.958;2024-01-30T15:05:54;12.27;;;8.00;;
8151;SDS011;4117;53.622;9.958;2024-01-30T15:08:22;15.03;;;8.20;;
8151;SDS011;4117;53.622;9.958;2024-01-30T15:10:50;12.60;;;7.87;;
8151;SDS011;4117;53.622;9.958;2024-01-30T15:13:21;10.03;;;7.67;;
8151;SDS011;4117;53.622;9.958;2024-01-30T15:15:51;13.50;;;8.10;;